Klamath Falls, OR

8:55 AM PDT on March 23, 2017 (GMT -0700)
Mills Addition | | Change Station

Elev 4099 ft 42.22 °N, 121.76 °W | Updated 1 second ago

Mostly Cloudy
Mostly Cloudy
32.0 °F
Feels Like 32 °F
N
1.1
Wind Variable Wind from ESE

Today
High -- | Low -- °F
--% Chance of Precip.
Yesterday
High -- | Low -- °F
Precip. -- in
Pressure 30.08 in
Visibility 10.0 miles
Clouds Scattered Clouds 1800 ft
Windchill 32 °F
Dew Point 31 °F
Humidity 96%
Rainfall 0.00 in
Snow Depth Not available.
7:04 AM 7:23 PM
Waning Crescent, 22% visible
SPECI KLMT 231510Z 00000KT 10SM R32/3000VP6000FT SCT018 M02/M02 A3008 RMK AO2 I1000 T10171022 $
Pressure 30.08 in
Visibility 10.0 miles
Clouds Scattered Clouds 1800 ft
Windchill 32 °F
Dew Point 31 °F
Humidity 96%
Rainfall 0.00 in
Snow Depth Not available.
7:04 AM 7:23 PM
Waning Crescent, 22% visible
SPECI KLMT 231510Z 00000KT 10SM R32/3000VP6000FT SCT018 M02/M02 A3008 RMK AO2 I1000 T10171022 $

Get Severe Weather Alerts

Thanks for signing up!

Be on the lookout for a verification email in your inbox.

You'll start receiving the daily forecast at 8 AM.

×

10-Day Weather Forecast

Almanac

Astronomy

Mar. 23, 2017 Rise Set
Actual Time
Civil Twilight
Nautical Twilight
Astronomical Twilight
Moon
Length of Visible Light
Length of Day
Tomorrow will be .
, % of the Moon is Illuminated

Today's Extremes

State Highs State Lows

Community

WunderPhotos

Upload Photos

1,962,540 photos uploaded!

WunderBlog® & News

Nearby

Air Quality

  Air Quality AQ Index Pollutant
Not available.

Snow Depth

Station Depth Elevation

Earthquake Activity

City Distance Mag. Time & Date
Minimum magnitude displayed is 2.5.

Earthquake Activity

City Distance Mag. Time & Date
Minimum magnitude displayed is 2.5.

Coastal Water Temperatures

Place Temperature

Stations

Nearby Weather Stations

Station Location Temp. Windchill Dew Point Humidity Wind Precip. Elev Updated Type
                   

Watches & Warnings

There are currently no watches in effect.